createdAt,value
2022-12-20T00:02:10.894Z,98432.84
2022-12-20T00:04:37.713Z,98425.91
2022-12-20T00:07:04.182Z,98425.63
2022-12-20T00:09:30.658Z,98417.59
2022-12-20T00:11:58.822Z,98410.94
2022-12-20T00:14:25.876Z,98413.84
2022-12-20T00:16:52.344Z,98408.00
2022-12-20T00:19:18.805Z,98404.25
2022-12-20T00:21:45.328Z,98404.53
2022-12-20T00:24:11.839Z,98408.78
2022-12-20T00:26:38.552Z,98411.44
2022-12-20T00:29:05.340Z,98404.75
2022-12-20T00:31:32.044Z,98411.16
2022-12-20T00:33:58.985Z,98411.94
2022-12-20T00:36:27.173Z,98410.84
2022-12-20T00:38:54.756Z,98402.34
2022-12-20T00:41:23.184Z,98398.31
2022-12-20T00:43:49.695Z,98405.28
2022-12-20T00:46:16.959Z,98412.72
2022-12-20T00:48:43.515Z,98411.91
2022-12-20T00:51:12.120Z,98414.84
2022-12-20T00:53:38.842Z,98419.91
2022-12-20T00:56:05.844Z,98407.06
2022-12-20T00:58:37.126Z,98418.53
2022-12-20T01:01:04.612Z,98400.41
2022-12-20T01:03:31.325Z,98392.94
2022-12-20T01:06:01.723Z,98391.63
2022-12-20T01:08:29.118Z,98394.00
2022-12-20T01:11:06.278Z,98397.97
2022-12-20T01:13:33.120Z,98387.84
2022-12-20T01:16:11.180Z,98383.78
2022-12-20T01:18:37.743Z,98378.72
2022-12-20T01:21:05.234Z,98379.81
2022-12-20T01:23:31.747Z,98387.22
2022-12-20T01:26:00.004Z,98375.25
2022-12-20T01:28:26.550Z,98377.63
2022-12-20T01:30:53.004Z,98375.75
2022-12-20T01:33:19.518Z,98376.53
2022-12-20T01:36:02.177Z,98360.28
2022-12-20T01:38:28.933Z,98362.13
2022-12-20T01:40:57.344Z,98355.22
2022-12-20T01:43:25.410Z,98352.00
2022-12-20T01:45:52.584Z,98343.47
2022-12-20T01:48:22.511Z,98346.94
2022-12-20T01:50:49.056Z,98349.31
2022-12-20T01:53:16.504Z,98346.91
2022-12-20T01:55:43.046Z,98343.72
2022-12-20T01:58:10.244Z,98347.69
2022-12-20T02:00:37.317Z,98339.97
2022-12-20T02:03:08.185Z,98343.13
2022-12-20T02:05:39.794Z,98342.59
2022-12-20T02:08:07.000Z,98341.25
2022-12-20T02:10:48.764Z,98345.25
2022-12-20T02:13:47.864Z,98355.31
2022-12-20T02:16:16.215Z,98342.53
2022-12-20T02:18:48.521Z,98365.94
2022-12-20T02:21:49.190Z,98368.09
2022-12-20T02:24:29.221Z,98364.84
2022-12-20T02:27:17.075Z,98357.13
2022-12-20T02:30:04.102Z,98353.91
2022-12-20T02:33:03.568Z,98355.25
2022-12-20T02:35:32.036Z,98348.31
2022-12-20T02:38:00.066Z,98347.53
2022-12-20T02:40:40.099Z,98347.75
2022-12-20T02:46:53.921Z,98322.72
2022-12-20T02:49:21.194Z,98320.84
2022-12-20T02:51:48.301Z,98329.09
2022-12-20T02:54:15.287Z,98313.13
2022-12-20T02:56:56.704Z,98338.66
2022-12-20T02:59:39.744Z,98337.06
2022-12-20T03:02:06.330Z,98318.38
2022-12-20T03:04:34.910Z,98319.44
2022-12-20T03:07:12.524Z,98319.44
2022-12-20T03:09:40.231Z,98322.34
2022-12-20T03:12:07.512Z,98319.94
2022-12-20T03:14:33.989Z,98328.19
2022-12-20T03:17:00.640Z,98323.94
2022-12-20T03:19:27.198Z,98321.50
2022-12-20T03:21:53.659Z,98327.88
2022-12-20T03:24:20.110Z,98316.75
2022-12-20T03:26:46.584Z,98321.53
2022-12-20T03:29:13.065Z,98308.22
2022-12-20T03:31:39.729Z,98320.75
2022-12-20T03:34:06.453Z,98323.41
2022-12-20T03:36:32.971Z,98327.91
2022-12-20T03:38:59.486Z,98320.16
2022-12-20T03:41:26.227Z,98330.56
2022-12-20T03:43:52.817Z,98321.81
2022-12-20T03:46:19.368Z,98313.28
2022-12-20T03:48:45.862Z,98307.13
2022-12-20T03:51:12.340Z,98306.59
2022-12-20T03:53:38.802Z,98311.94
2022-12-20T03:56:05.541Z,98311.38
2022-12-20T03:58:32.009Z,98316.16
2022-12-20T04:00:58.715Z,98317.47
2022-12-20T04:03:25.322Z,98328.66
2022-12-20T04:05:51.927Z,98337.44
2022-12-20T04:08:18.386Z,98332.09
2022-12-20T04:11:03.238Z,98321.47
2022-12-20T04:13:29.784Z,98315.09
2022-12-20T04:16:00.345Z,98323.59
2022-12-20T04:18:27.527Z,98334.22
2022-12-20T04:20:54.064Z,98327.28
2022-12-20T04:23:20.550Z,98334.72
2022-12-20T04:25:47.117Z,98335.00
2022-12-20T04:28:13.576Z,98329.69
2022-12-20T04:30:40.059Z,98330.47
2022-12-20T04:33:06.568Z,98335.78
2022-12-20T04:35:33.044Z,98331.53
2022-12-20T04:37:59.513Z,98332.56
2022-12-20T04:40:26.031Z,98324.59
2022-12-20T04:42:52.644Z,98325.34
2022-12-20T04:45:19.131Z,98319.81
2022-12-20T04:47:45.635Z,98313.13
2022-12-20T04:50:12.220Z,98317.91
2022-12-20T04:52:57.319Z,98319.78
2022-12-20T04:55:23.808Z,98317.09
2022-12-20T04:57:50.271Z,98315.47
2022-12-20T05:00:17.170Z,98309.63
2022-12-20T05:02:43.773Z,98317.59
2022-12-20T05:05:10.361Z,98308.03
2022-12-20T05:07:36.829Z,98310.94
2022-12-20T05:10:03.897Z,98311.19
2022-12-20T05:12:30.480Z,98304.28
2022-12-20T05:14:56.965Z,98295.75
2022-12-20T05:17:23.431Z,98285.13
2022-12-20T05:19:52.597Z,98292.53
2022-12-20T05:22:37.636Z,98289.09
2022-12-20T05:25:23.255Z,98292.28
2022-12-20T05:27:49.735Z,98299.22
2022-12-20T05:30:16.261Z,98300.56
2022-12-20T05:32:42.746Z,98304.28
2022-12-20T05:35:09.464Z,98308.84
2022-12-20T05:37:35.938Z,98305.88
2022-12-20T05:40:02.467Z,98305.88
2022-12-20T05:42:28.968Z,98294.44
2022-12-20T05:44:55.526Z,98289.91
2022-12-20T05:47:22.185Z,98282.19
2022-12-20T05:49:48.657Z,98290.97
2022-12-20T05:52:15.136Z,98286.19
2022-12-20T05:54:41.609Z,98282.75
2022-12-20T05:57:08.068Z,98291.28
2022-12-20T05:59:35.108Z,98294.16
2022-12-20T06:02:01.678Z,98298.47
2022-12-20T06:04:28.233Z,98301.34
2022-12-20T06:06:54.687Z,98299.75
2022-12-20T06:09:21.258Z,98294.97
2022-12-20T06:11:47.764Z,98300.81
2022-12-20T06:14:14.248Z,98294.13
2022-12-20T06:16:40.765Z,98292.84
2022-12-20T06:19:07.299Z,98289.38
2022-12-20T06:21:33.764Z,98277.38
2022-12-20T06:24:01.568Z,98277.66
2022-12-20T06:26:28.195Z,98271.75
2022-12-20T06:28:57.036Z,98280.56
2022-12-20T06:31:23.586Z,98282.41
2022-12-20T06:33:50.066Z,98276.59
2022-12-20T06:36:16.589Z,98280.16
2022-12-20T06:38:43.074Z,98279.16
2022-12-20T06:41:09.649Z,98274.94
2022-12-20T06:43:36.115Z,98271.53
2022-12-20T06:46:02.620Z,98266.22
2022-12-20T06:48:29.784Z,98270.00
2022-12-20T06:50:56.505Z,98259.91
2022-12-20T06:53:23.046Z,98268.72
2022-12-20T06:55:52.505Z,98268.22
2022-12-20T06:58:19.448Z,98265.28
2022-12-20T07:00:46.005Z,98263.69
2022-12-20T07:03:12.623Z,98267.16
2022-12-20T07:05:39.451Z,98264.47
2022-12-20T07:08:06.013Z,98254.13
2022-12-20T07:10:35.543Z,98258.09
2022-12-20T07:13:02.014Z,98260.00
2022-12-20T07:15:28.513Z,98251.00
2022-12-20T07:17:54.997Z,98256.06
2022-12-20T07:20:21.532Z,98267.53
2022-12-20T07:22:48.287Z,98263.84
2022-12-20T07:25:14.855Z,98265.16
2022-12-20T07:27:41.334Z,98255.06
2022-12-20T07:30:08.323Z,98258.53
2022-12-20T07:32:34.870Z,98270.25
2022-12-20T07:35:01.478Z,98276.41
2022-12-20T07:37:29.831Z,98281.75
2022-12-20T07:39:56.381Z,98274.03
2022-12-20T07:42:22.875Z,98268.16
2022-12-20T07:44:49.375Z,98279.06
2022-12-20T07:47:15.869Z,98283.84
2022-12-20T07:49:42.339Z,98271.59
2022-12-20T07:52:08.868Z,98279.84
2022-12-20T07:54:36.888Z,98269.50
2022-12-20T07:57:10.259Z,98264.69
2022-12-20T07:59:41.395Z,98267.34
2022-12-20T08:02:09.545Z,98250.56
2022-12-20T08:04:36.076Z,98250.06
2022-12-20T08:07:02.569Z,98251.94
2022-12-20T08:09:30.181Z,98252.19
2022-12-20T08:11:56.687Z,98256.44
2022-12-20T08:14:23.166Z,98263.91
2022-12-20T08:16:49.706Z,98275.63
2022-12-20T08:19:16.274Z,98270.59
2022-12-20T08:21:42.748Z,98266.09
2022-12-20T08:24:09.267Z,98265.03
2022-12-20T08:26:39.663Z,98265.56
2022-12-20T08:29:06.285Z,98256.53
2022-12-20T08:31:32.849Z,98260.50
2022-12-20T08:33:59.924Z,98260.50
2022-12-20T08:36:27.463Z,98250.38
2022-12-20T08:38:53.961Z,98234.63
2022-12-20T08:41:20.536Z,98223.97
2022-12-20T08:43:47.013Z,98213.81
2022-12-20T08:46:13.787Z,98231.44
2022-12-20T08:48:40.380Z,98238.88
2022-12-20T08:51:08.382Z,98235.97
2022-12-20T08:53:35.301Z,98223.16
2022-12-20T08:56:11.600Z,98232.22
2022-12-20T08:58:38.192Z,98231.94
2022-12-20T09:01:06.899Z,98216.25
2022-12-20T09:03:34.857Z,98212.50
2022-12-20T09:06:01.616Z,98213.03
2022-12-20T09:08:28.086Z,98214.66
2022-12-20T09:10:54.563Z,98206.91
2022-12-20T09:13:21.617Z,98206.63
2022-12-20T09:15:48.199Z,98205.03
2022-12-20T09:18:14.683Z,98204.50
2022-12-20T09:20:45.326Z,98207.69
2022-12-20T09:23:11.871Z,98211.16
2022-12-20T09:25:38.442Z,98209.03
2022-12-20T09:28:05.187Z,98215.97
2022-12-20T09:30:32.370Z,98207.47
2022-12-20T09:32:58.848Z,98212.25
2022-12-20T09:35:37.673Z,98212.25
2022-12-20T09:38:05.684Z,98214.13
2022-12-20T09:40:32.675Z,98206.94
2022-12-20T09:42:59.196Z,98218.66
2022-12-20T09:45:27.983Z,98200.56
2022-12-20T09:47:54.509Z,98202.69
2022-12-20T09:50:22.218Z,98192.31
2022-12-20T09:53:16.442Z,98192.56
2022-12-20T09:55:48.699Z,98194.16
2022-12-20T09:58:28.047Z,98180.28
2022-12-20T10:00:55.063Z,98183.25
2022-12-20T10:03:25.327Z,98171.25
2022-12-20T10:05:56.407Z,98166.44
2022-12-20T10:08:47.829Z,98172.84
2022-12-20T10:11:23.297Z,98166.44
2022-12-20T10:13:52.474Z,98167.00
2022-12-20T10:16:43.811Z,98172.84
2022-12-20T10:19:28.942Z,98171.50
2022-12-20T10:21:58.269Z,98176.31
2022-12-20T10:24:32.099Z,98171.47
2022-12-20T10:27:02.381Z,98179.75
2022-12-20T10:29:29.667Z,98170.19
2022-12-20T10:31:59.991Z,98164.88
2022-12-20T10:34:28.872Z,98161.41
2022-12-20T10:37:13.171Z,98160.06
2022-12-20T10:39:44.131Z,98159.00
2022-12-20T10:42:37.287Z,98151.00
2022-12-20T10:45:04.365Z,98147.28
2022-12-20T10:47:41.826Z,98141.69
2022-12-20T10:50:29.137Z,98147.00
2022-12-20T10:53:10.760Z,98143.53
2022-12-20T10:55:39.475Z,98134.22
2022-12-20T10:58:21.864Z,98136.34
2022-12-20T11:00:49.520Z,98123.31
2022-12-20T11:03:18.604Z,98135.00
2022-12-20T11:06:03.386Z,98120.63
2022-12-20T11:08:41.265Z,98122.22
2022-12-20T11:11:16.265Z,98123.81
2022-12-20T11:13:43.530Z,98121.97
2022-12-20T11:16:40.000Z,98110.50
2022-12-20T11:19:10.875Z,98113.69
2022-12-20T11:21:52.439Z,98108.13
2022-12-20T11:24:28.043Z,98111.59
2022-12-20T11:27:16.441Z,98127.25
2022-12-20T11:30:09.683Z,98110.72
2022-12-20T11:32:49.055Z,98109.69
2022-12-20T11:36:00.714Z,98095.81
2022-12-20T11:38:42.337Z,98090.78
2022-12-20T11:41:13.956Z,98083.34
2022-12-20T11:44:27.387Z,98094.25
2022-12-20T11:47:22.475Z,98077.47
2022-12-20T11:49:51.741Z,98073.72
2022-12-20T11:52:38.235Z,98063.91
2022-12-20T11:55:20.535Z,98070.25
2022-12-20T11:58:17.676Z,98064.94
2022-12-20T12:00:39.429Z,98051.09
2022-12-20T12:03:09.999Z,98050.03
2022-12-20T12:05:44.900Z,98044.69
2022-12-20T12:08:18.348Z,98049.22
2022-12-20T12:10:56.382Z,98052.66
2022-12-20T12:13:31.079Z,98051.59
2022-12-20T12:16:08.878Z,98034.53
2022-12-20T12:18:36.008Z,98035.31
2022-12-20T12:21:09.441Z,98031.84
2022-12-20T12:23:44.551Z,98025.72
2022-12-20T12:26:35.302Z,98029.19
2022-12-20T12:29:10.192Z,98020.69
2022-12-20T12:31:38.860Z,98014.28
2022-12-20T12:34:30.446Z,98007.88
2022-12-20T12:37:23.119Z,98018.00
2022-12-20T12:40:25.296Z,97992.69
2022-12-20T12:43:07.016Z,98000.69
2022-12-20T12:45:41.256Z,98003.84
2022-12-20T12:48:16.126Z,98002.53
2022-12-20T12:50:45.258Z,98011.06
2022-12-20T12:53:20.753Z,97993.72
2022-12-20T12:55:51.200Z,97994.50
2022-12-20T12:58:23.677Z,97996.88
2022-12-20T13:00:50.284Z,98001.97
2022-12-20T13:03:20.835Z,98004.63
2022-12-20T13:05:47.641Z,98004.88
2022-12-20T13:08:17.456Z,97993.69
2022-12-20T13:10:43.936Z,98006.22
2022-12-20T13:13:14.389Z,97996.66
2022-12-20T13:15:40.735Z,97996.66
2022-12-20T13:18:13.201Z,98005.44
2022-12-20T13:20:39.724Z,97985.97
2022-12-20T13:23:09.235Z,97989.16
2022-12-20T13:25:43.140Z,97980.38
2022-12-20T13:28:16.790Z,97974.53
2022-12-20T13:30:44.448Z,97987.28
2022-12-20T13:33:42.039Z,97983.28
2022-12-20T13:36:11.470Z,97984.13
2022-12-20T13:38:47.044Z,97981.72
2022-12-20T13:41:37.331Z,97991.06
2022-12-20T13:44:15.792Z,97979.34
2022-12-20T13:46:47.004Z,97983.09
2022-12-20T13:49:20.956Z,97986.84
2022-12-20T13:51:47.710Z,97985.50
2022-12-20T13:54:26.815Z,97979.88
2022-12-20T13:56:54.105Z,97978.53
2022-12-20T13:59:24.890Z,97991.06
2022-12-20T14:01:56.734Z,97985.72
2022-12-20T14:04:24.204Z,97983.56
2022-12-20T14:06:56.932Z,97978.00
2022-12-20T14:09:34.904Z,97980.91
2022-12-20T14:12:13.241Z,97976.13
2022-12-20T14:14:45.152Z,97976.66
2022-12-20T14:17:18.601Z,97970.81
2022-12-20T14:19:45.153Z,97976.38
2022-12-20T14:22:12.177Z,97982.00
2022-12-20T14:24:40.366Z,97977.22
2022-12-20T14:27:06.812Z,97980.69
2022-12-20T14:29:33.589Z,97984.13
2022-12-20T14:32:00.077Z,97980.41
2022-12-20T14:34:30.108Z,97980.91
2022-12-20T14:37:30.476Z,97985.72
2022-12-20T14:40:04.189Z,97975.84
2022-12-20T14:42:34.728Z,97973.19
2022-12-20T14:45:09.981Z,97973.72
2022-12-20T14:47:37.552Z,97977.69
2022-12-20T14:50:06.122Z,97974.53
2022-12-20T14:52:32.432Z,97979.06
2022-12-20T14:55:10.377Z,97967.56
2022-12-20T14:57:37.228Z,97969.44
2022-12-20T15:00:19.003Z,97961.47
2022-12-20T15:02:45.417Z,97953.75
2022-12-20T15:05:33.783Z,97954.03
2022-12-20T15:08:19.991Z,97953.53
2022-12-20T15:11:04.824Z,97942.94
2022-12-20T15:13:39.187Z,97943.47
2022-12-20T15:16:16.288Z,97940.50
2022-12-20T15:18:43.004Z,97941.56
2022-12-20T15:21:33.307Z,97948.47
2022-12-20T15:24:00.875Z,97938.34
2022-12-20T15:26:27.432Z,97942.34
2022-12-20T15:28:54.091Z,97943.13
2022-12-20T15:31:22.974Z,97948.44
2022-12-20T15:33:54.661Z,97968.69
2022-12-20T15:36:22.496Z,97962.56
2022-12-20T15:41:36.108Z,97967.91
2022-12-20T15:44:07.039Z,97967.38
2022-12-20T15:46:33.546Z,97979.09
2022-12-20T15:49:00.041Z,97975.63
2022-12-20T15:51:34.120Z,97985.22
2022-12-20T15:54:01.031Z,97986.84
2022-12-20T15:56:29.231Z,97977.50
2022-12-20T15:58:55.839Z,97973.50
2022-12-20T16:01:24.713Z,97970.03
2022-12-20T16:03:51.422Z,97964.69
2022-12-20T16:06:18.005Z,97966.03
2022-12-20T16:08:44.513Z,97966.81
2022-12-20T16:11:23.002Z,97962.56
2022-12-20T16:13:49.658Z,97956.97
2022-12-20T16:16:20.409Z,97959.66
2022-12-20T16:18:46.948Z,97959.66
2022-12-20T16:21:21.137Z,97950.59
2022-12-20T16:23:47.605Z,97953.25
2022-12-20T16:26:14.682Z,97951.16
2022-12-20T16:28:41.222Z,97958.03
2022-12-20T16:31:17.828Z,97952.16
2022-12-20T16:33:44.298Z,97950.00
2022-12-20T16:36:11.332Z,97956.13
2022-12-20T16:38:37.783Z,97956.38
2022-12-20T16:41:16.031Z,97960.63
2022-12-20T16:43:42.738Z,97955.88
2022-12-20T16:46:19.303Z,97961.72
2022-12-20T16:48:45.998Z,97957.72
2022-12-20T16:51:26.128Z,97962.28
2022-12-20T16:54:19.460Z,97959.59
2022-12-20T16:56:51.938Z,97951.09
2022-12-20T16:59:21.243Z,97940.97
2022-12-20T17:01:49.260Z,97957.50
2022-12-20T17:04:17.460Z,97954.03
2022-12-20T17:06:44.230Z,97962.56
2022-12-20T17:11:54.719Z,97953.50
2022-12-20T17:14:21.241Z,97961.75
2022-12-20T17:16:47.873Z,97946.06
2022-12-20T17:19:14.500Z,97951.63
2022-12-20T17:24:27.043Z,97944.47
2022-12-20T17:26:53.605Z,97946.06
2022-12-20T17:29:20.492Z,97951.69
2022-12-20T17:31:47.840Z,97941.84
2022-12-20T17:34:18.734Z,97944.22
2022-12-20T17:36:45.538Z,97944.22
2022-12-20T17:39:12.035Z,97940.75
2022-12-20T17:41:38.507Z,97945.03
2022-12-20T17:44:05.813Z,97944.19
2022-12-20T17:46:32.330Z,97942.56
2022-12-20T17:48:58.779Z,97951.34
2022-12-20T17:51:28.832Z,97947.91
2022-12-20T17:53:56.854Z,97940.69
2022-12-20T17:56:25.120Z,97948.91
2022-12-20T17:58:51.631Z,97957.47
2022-12-20T18:01:19.574Z,97948.66
2022-12-20T18:04:03.500Z,97940.13
2022-12-20T18:06:31.281Z,97943.34
2022-12-20T18:08:57.911Z,97935.09
2022-12-20T18:11:25.613Z,97926.53
2022-12-20T18:13:53.205Z,97922.81
2022-12-20T18:16:25.315Z,97916.91
2022-12-20T18:18:53.045Z,97911.28
2022-12-20T18:21:19.595Z,97911.78
2022-12-20T18:23:46.577Z,97909.94
2022-12-20T18:26:29.730Z,97906.19
2022-12-20T18:28:57.865Z,97888.59
2022-12-20T18:31:25.676Z,97891.81
2022-12-20T18:33:57.505Z,97889.94
2022-12-20T18:36:29.109Z,97885.41
2022-12-20T18:38:56.406Z,97895.84
2022-12-20T18:41:25.048Z,97885.75
2022-12-20T18:43:52.250Z,97893.19
2022-12-20T18:46:22.345Z,97892.41
2022-12-20T18:48:53.184Z,97892.13
2022-12-20T18:51:24.447Z,97888.13
2022-12-20T18:53:53.733Z,97891.84
2022-12-20T18:56:21.792Z,97885.41
2022-12-20T18:58:48.640Z,97884.34
2022-12-20T19:01:22.459Z,97885.41
2022-12-20T19:03:49.851Z,97872.09
2022-12-20T19:06:16.367Z,97873.97
2022-12-20T19:08:42.828Z,97870.75
2022-12-20T19:11:14.075Z,97872.63
2022-12-20T19:13:40.607Z,97870.75
2022-12-20T19:16:14.030Z,97868.38
2022-12-20T19:18:41.061Z,97869.47
2022-12-20T19:21:08.539Z,97872.16
2022-12-20T19:23:35.312Z,97872.91
2022-12-20T19:26:06.020Z,97871.06
2022-12-20T19:28:32.894Z,97873.97
2022-12-20T19:31:08.271Z,97867.47
2022-12-20T19:33:41.871Z,97860.78
2022-12-20T19:36:13.137Z,97857.28
2022-12-20T19:38:43.623Z,97862.34
2022-12-20T19:41:10.371Z,97854.09
2022-12-20T19:43:36.886Z,97855.38
2022-12-20T19:46:03.514Z,97867.69
2022-12-20T19:48:30.402Z,97873.81
2022-12-20T19:51:03.498Z,97878.34
2022-12-20T19:53:30.001Z,97878.06
2022-12-20T19:55:56.466Z,97874.63
2022-12-20T19:58:23.035Z,97867.69
2022-12-20T20:00:49.956Z,97867.44
2022-12-20T20:03:16.779Z,97862.28
2022-12-20T20:05:43.492Z,97856.09
2022-12-20T20:08:10.686Z,97858.13
2022-12-20T20:10:37.157Z,97866.53
2022-12-20T20:13:03.747Z,97863.34
2022-12-20T20:15:30.272Z,97867.50
2022-12-20T20:17:56.784Z,97867.00
2022-12-20T20:20:23.249Z,97863.28
2022-12-20T20:22:49.722Z,97863.59
2022-12-20T20:25:16.306Z,97864.00
2022-12-20T20:27:42.834Z,97868.72
2022-12-20T20:30:11.118Z,97866.19
2022-12-20T20:32:37.617Z,97868.00
2022-12-20T20:35:04.339Z,97864.44
2022-12-20T20:37:30.799Z,97851.63
2022-12-20T20:39:57.261Z,97856.75
2022-12-20T20:42:23.837Z,97858.16
2022-12-20T20:44:50.342Z,97853.38
2022-12-20T20:47:16.802Z,97842.47
2022-12-20T20:49:43.266Z,97859.03
2022-12-20T20:52:10.415Z,97852.81
2022-12-20T20:54:36.874Z,97841.09
2022-12-20T20:57:03.649Z,97858.94
2022-12-20T20:59:30.097Z,97861.94
2022-12-20T21:01:56.874Z,97868.84
2022-12-20T21:04:23.403Z,97861.09
2022-12-20T21:06:49.873Z,97855.56
2022-12-20T21:09:16.823Z,97859.03
2022-12-20T21:11:44.869Z,97846.22
2022-12-20T21:14:11.761Z,97851.88
2022-12-20T21:16:40.209Z,97849.69
2022-12-20T21:19:06.689Z,97842.75
2022-12-20T21:21:33.198Z,97846.22
2022-12-20T21:23:59.706Z,97851.88
2022-12-20T21:26:26.217Z,97841.44
2022-12-20T21:28:57.201Z,97840.66
2022-12-20T21:31:23.969Z,97840.94
2022-12-20T21:33:50.441Z,97848.19
2022-12-20T21:36:18.304Z,97844.34
2022-12-20T21:38:50.207Z,97848.75
2022-12-20T21:41:17.162Z,97845.06
2022-12-20T21:43:43.631Z,97849.84
2022-12-20T21:46:11.727Z,97854.81
2022-12-20T21:48:42.381Z,97853.75
2022-12-20T21:51:11.224Z,97847.81
2022-12-20T21:53:42.303Z,97835.84
2022-12-20T21:56:09.115Z,97827.03
2022-12-20T21:58:35.658Z,97822.47
2022-12-20T22:01:03.719Z,97814.22
2022-12-20T22:03:30.395Z,97828.69
2022-12-20T22:05:56.978Z,97830.63
2022-12-20T22:08:24.364Z,97835.19
2022-12-20T22:11:05.302Z,97832.00
2022-12-20T22:13:37.214Z,97832.03
2022-12-20T22:16:08.261Z,97830.41
2022-12-20T22:18:34.918Z,97825.44
2022-12-20T22:21:05.318Z,97830.78
2022-12-20T22:23:31.869Z,97824.16
2022-12-20T22:26:02.535Z,97817.34
2022-12-20T22:28:28.987Z,97813.97
2022-12-20T22:30:55.470Z,97821.91
2022-12-20T22:33:22.537Z,97822.69
2022-12-20T22:35:49.006Z,97821.91
2022-12-20T22:38:15.919Z,97826.19
2022-12-20T22:40:42.796Z,97818.03
2022-12-20T22:43:09.271Z,97824.16
2022-12-20T22:45:35.760Z,97817.16
2022-12-20T22:48:02.264Z,97823.56
2022-12-20T22:50:28.757Z,97814.97
2022-12-20T22:52:55.359Z,97819.53
2022-12-20T22:55:21.858Z,97820.63
2022-12-20T22:57:48.313Z,97820.09
2022-12-20T23:00:15.309Z,97823.88
2022-12-20T23:02:42.052Z,97813.75
2022-12-20T23:05:09.047Z,97824.72
2022-12-20T23:07:35.556Z,97816.78
2022-12-20T23:10:02.023Z,97817.88
2022-12-20T23:12:46.875Z,97807.75
2022-12-20T23:15:32.230Z,97815.25
2022-12-20T23:17:58.701Z,97806.78
2022-12-20T23:20:43.347Z,97803.41
2022-12-20T23:23:09.810Z,97806.44
2022-12-20T23:25:36.265Z,97803.22
2022-12-20T23:28:02.927Z,97802.19
2022-12-20T23:30:29.398Z,97804.69
2022-12-20T23:32:56.239Z,97798.25
2022-12-20T23:35:24.662Z,97807.59
2022-12-20T23:37:51.176Z,97810.56
2022-12-20T23:40:17.893Z,97815.13
2022-12-20T23:42:44.559Z,97811.44
2022-12-20T23:45:11.127Z,97814.41
2022-12-20T23:47:37.857Z,97816.78
2022-12-20T23:50:04.634Z,97807.97
2022-12-20T23:52:31.095Z,97801.31
2022-12-20T23:54:57.563Z,97807.25
2022-12-20T23:57:24.024Z,97793.78
2022-12-20T23:59:50.480Z,97794.03
